sensor_id;sensor_type;location;lat;lon;timestamp;temperature;humidity
8820;DHT22;4446;50.876;4.736;2022-08-01T00:02:15;20.70;99.90
8820;DHT22;4446;50.876;4.736;2022-08-01T00:04:42;20.70;99.90
8820;DHT22;4446;50.876;4.736;2022-08-01T00:07:09;20.60;99.90
8820;DHT22;4446;50.876;4.736;2022-08-01T00:09:37;20.60;99.90
8820;DHT22;4446;50.876;4.736;2022-08-01T00:12:05;20.70;99.90
8820;DHT22;4446;50.876;4.736;2022-08-01T00:14:32;20.70;99.90
8820;DHT22;4446;50.876;4.736;2022-08-01T00:16:59;20.70;99.90
8820;DHT22;4446;50.876;4.736;2022-08-01T00:19:26;20.70;99.90
8820;DHT22;4446;50.876;4.736;2022-08-01T00:21:54;20.70;99.90
8820;DHT22;4446;50.876;4.736;2022-08-01T00:24:21;20.60;99.90
8820;DHT22;4446;50.876;4.736;2022-08-01T00:26:49;20.60;99.90
8820;DHT22;4446;50.876;4.736;2022-08-01T00:29:16;20.60;99.90
8820;DHT22;4446;50.876;4.736;2022-08-01T00:31:43;20.60;99.90
8820;DHT22;4446;50.876;4.736;2022-08-01T00:34:10;20.60;99.90
8820;DHT22;4446;50.876;4.736;2022-08-01T00:36:37;20.60;99.90
8820;DHT22;4446;50.876;4.736;2022-08-01T00:39:04;20.60;99.90
8820;DHT22;4446;50.876;4.736;2022-08-01T00:41:31;20.60;99.90
8820;DHT22;4446;50.876;4.736;2022-08-01T00:44:02;20.60;99.90
8820;DHT22;4446;50.876;4.736;2022-08-01T00:46:30;20.50;99.90
8820;DHT22;4446;50.876;4.736;2022-08-01T00:48:57;20.50;99.90
8820;DHT22;4446;50.876;4.736;2022-08-01T00:51:25;20.50;99.90
8820;DHT22;4446;50.876;4.736;2022-08-01T00:53:52;20.40;99.90
8820;DHT22;4446;50.876;4.736;2022-08-01T00:56:20;20.40;99.90
8820;DHT22;4446;50.876;4.736;2022-08-01T00:58:48;20.30;99.90
8820;DHT22;4446;50.876;4.736;2022-08-01T01:01:17;20.30;99.90
8820;DHT22;4446;50.876;4.736;2022-08-01T01:03:46;20.30;99.90
8820;DHT22;4446;50.876;4.736;2022-08-01T01:06:23;20.20;99.90
8820;DHT22;4446;50.876;4.736;2022-08-01T01:08:58;20.20;99.90
8820;DHT22;4446;50.876;4.736;2022-08-01T01:11:34;20.10;99.90
8820;DHT22;4446;50.876;4.736;2022-08-01T01:14:05;20.10;99.90
8820;DHT22;4446;50.876;4.736;2022-08-01T01:16:37;20.10;99.90
8820;DHT22;4446;50.876;4.736;2022-08-01T01:19:13;20.10;99.90
8820;DHT22;4446;50.876;4.736;2022-08-01T01:22:07;20.00;99.90
8820;DHT22;4446;50.876;4.736;2022-08-01T01:24:44;20.10;99.90
8820;DHT22;4446;50.876;4.736;2022-08-01T01:27:21;20.00;99.90
8820;DHT22;4446;50.876;4.736;2022-08-01T01:29:54;20.00;99.90
8820;DHT22;4446;50.876;4.736;2022-08-01T01:32:28;20.00;99.90
8820;DHT22;4446;50.876;4.736;2022-08-01T01:34:59;19.90;99.90
8820;DHT22;4446;50.876;4.736;2022-08-01T01:37:27;19.90;99.90
8820;DHT22;4446;50.876;4.736;2022-08-01T01:39:57;19.90;99.90
8820;DHT22;4446;50.876;4.736;2022-08-01T01:42:25;19.90;99.90
8820;DHT22;4446;50.876;4.736;2022-08-01T01:44:54;19.90;99.90
8820;DHT22;4446;50.876;4.736;2022-08-01T01:47:23;20.00;99.90
8820;DHT22;4446;50.876;4.736;2022-08-01T01:49:52;20.00;99.90
8820;DHT22;4446;50.876;4.736;2022-08-01T01:52:21;20.10;99.90
8820;DHT22;4446;50.876;4.736;2022-08-01T01:54:50;20.00;99.90
8820;DHT22;4446;50.876;4.736;2022-08-01T01:57:18;20.00;99.90
8820;DHT22;4446;50.876;4.736;2022-08-01T01:59:48;20.00;99.90
8820;DHT22;4446;50.876;4.736;2022-08-01T02:02:19;20.00;99.90
8820;DHT22;4446;50.876;4.736;2022-08-01T02:04:48;20.00;99.90
8820;DHT22;4446;50.876;4.736;2022-08-01T02:07:19;20.00;99.90
8820;DHT22;4446;50.876;4.736;2022-08-01T02:09:49;20.00;99.90
8820;DHT22;4446;50.876;4.736;2022-08-01T02:12:17;20.00;99.90
8820;DHT22;4446;50.876;4.736;2022-08-01T02:14:48;20.00;99.90
8820;DHT22;4446;50.876;4.736;2022-08-01T02:17:19;20.00;99.90
8820;DHT22;4446;50.876;4.736;2022-08-01T02:19:48;20.10;99.90
8820;DHT22;4446;50.876;4.736;2022-08-01T02:22:19;20.10;99.90
8820;DHT22;4446;50.876;4.736;2022-08-01T02:24:51;20.00;99.90
8820;DHT22;4446;50.876;4.736;2022-08-01T02:27:24;20.00;99.90
8820;DHT22;4446;50.876;4.736;2022-08-01T02:29:55;20.00;99.90
8820;DHT22;4446;50.876;4.736;2022-08-01T02:32:31;20.00;99.90
8820;DHT22;4446;50.876;4.736;2022-08-01T02:35:00;20.10;99.90
8820;DHT22;4446;50.876;4.736;2022-08-01T02:37:30;20.10;99.90
8820;DHT22;4446;50.876;4.736;2022-08-01T02:39:59;20.10;99.90
8820;DHT22;4446;50.876;4.736;2022-08-01T02:42:27;20.10;99.90
8820;DHT22;4446;50.876;4.736;2022-08-01T02:44:57;20.10;99.90
8820;DHT22;4446;50.876;4.736;2022-08-01T02:47:29;20.10;99.90
8820;DHT22;4446;50.876;4.736;2022-08-01T02:49:57;20.10;99.90
8820;DHT22;4446;50.876;4.736;2022-08-01T02:52:26;20.10;99.90
8820;DHT22;4446;50.876;4.736;2022-08-01T02:54:56;20.00;99.90
8820;DHT22;4446;50.876;4.736;2022-08-01T02:57:26;20.00;99.90
8820;DHT22;4446;50.876;4.736;2022-08-01T02:59:54;20.00;99.90
8820;DHT22;4446;50.876;4.736;2022-08-01T03:02:23;20.00;99.90
8820;DHT22;4446;50.876;4.736;2022-08-01T03:04:52;20.00;99.90
8820;DHT22;4446;50.876;4.736;2022-08-01T03:07:21;19.90;99.90
8820;DHT22;4446;50.876;4.736;2022-08-01T03:09:49;19.90;99.90
8820;DHT22;4446;50.876;4.736;2022-08-01T03:12:20;19.90;99.90
8820;DHT22;4446;50.876;4.736;2022-08-01T03:14:50;19.90;99.90
8820;DHT22;4446;50.876;4.736;2022-08-01T03:17:19;19.90;99.90
8820;DHT22;4446;50.876;4.736;2022-08-01T03:19:48;19.90;99.90
8820;DHT22;4446;50.876;4.736;2022-08-01T03:22:18;19.90;99.90
8820;DHT22;4446;50.876;4.736;2022-08-01T03:24:52;19.90;99.90
8820;DHT22;4446;50.876;4.736;2022-08-01T03:27:21;19.90;99.90
8820;DHT22;4446;50.876;4.736;2022-08-01T03:29:50;19.90;99.90
8820;DHT22;4446;50.876;4.736;2022-08-01T03:32:19;19.90;99.90
8820;DHT22;4446;50.876;4.736;2022-08-01T03:34:47;19.80;99.90
8820;DHT22;4446;50.876;4.736;2022-08-01T03:37:23;19.80;99.90
8820;DHT22;4446;50.876;4.736;2022-08-01T03:39:55;19.90;99.90
8820;DHT22;4446;50.876;4.736;2022-08-01T03:42:30;19.80;99.90
8820;DHT22;4446;50.876;4.736;2022-08-01T03:45:02;19.80;99.90
8820;DHT22;4446;50.876;4.736;2022-08-01T03:47:32;19.90;99.90
8820;DHT22;4446;50.876;4.736;2022-08-01T03:50:02;19.90;99.90
8820;DHT22;4446;50.876;4.736;2022-08-01T03:52:32;19.90;99.90
8820;DHT22;4446;50.876;4.736;2022-08-01T03:55:03;19.80;99.90
8820;DHT22;4446;50.876;4.736;2022-08-01T03:57:32;19.60;99.90
8820;DHT22;4446;50.876;4.736;2022-08-01T04:00:01;19.60;99.90
8820;DHT22;4446;50.876;4.736;2022-08-01T04:02:28;19.50;99.90
8820;DHT22;4446;50.876;4.736;2022-08-01T04:04:56;19.40;99.90
8820;DHT22;4446;50.876;4.736;2022-08-01T04:07:24;19.40;99.90
8820;DHT22;4446;50.876;4.736;2022-08-01T04:09:53;19.40;99.90
8820;DHT22;4446;50.876;4.736;2022-08-01T04:12:21;19.30;99.90
8820;DHT22;4446;50.876;4.736;2022-08-01T04:14:48;19.20;99.90
8820;DHT22;4446;50.876;4.736;2022-08-01T04:17:16;19.10;99.90
8820;DHT22;4446;50.876;4.736;2022-08-01T04:19:43;19.00;99.90
8820;DHT22;4446;50.876;4.736;2022-08-01T04:22:13;18.90;99.90
8820;DHT22;4446;50.876;4.736;2022-08-01T04:24:41;18.90;99.90
8820;DHT22;4446;50.876;4.736;2022-08-01T04:27:13;18.80;99.90
8820;DHT22;4446;50.876;4.736;2022-08-01T04:29:42;18.80;99.90
8820;DHT22;4446;50.876;4.736;2022-08-01T04:32:12;18.80;99.90
8820;DHT22;4446;50.876;4.736;2022-08-01T04:34:41;18.80;99.90
8820;DHT22;4446;50.876;4.736;2022-08-01T04:37:09;18.80;99.90
8820;DHT22;4446;50.876;4.736;2022-08-01T04:39:37;18.70;99.90
8820;DHT22;4446;50.876;4.736;2022-08-01T04:42:06;18.70;99.90
8820;DHT22;4446;50.876;4.736;2022-08-01T04:44:35;18.70;99.90
8820;DHT22;4446;50.876;4.736;2022-08-01T04:47:04;18.70;99.90
8820;DHT22;4446;50.876;4.736;2022-08-01T04:49:33;18.70;99.90
8820;DHT22;4446;50.876;4.736;2022-08-01T04:52:00;18.70;99.90
8820;DHT22;4446;50.876;4.736;2022-08-01T04:54:28;18.70;99.90
8820;DHT22;4446;50.876;4.736;2022-08-01T04:56:59;18.70;99.90
8820;DHT22;4446;50.876;4.736;2022-08-01T04:59:26;18.80;99.90
8820;DHT22;4446;50.876;4.736;2022-08-01T05:02:11;18.70;99.90
8820;DHT22;4446;50.876;4.736;2022-08-01T05:04:39;18.60;99.90
8820;DHT22;4446;50.876;4.736;2022-08-01T05:07:07;18.60;99.90
8820;DHT22;4446;50.876;4.736;2022-08-01T05:09:34;18.50;99.90
8820;DHT22;4446;50.876;4.736;2022-08-01T05:12:03;18.50;99.90
8820;DHT22;4446;50.876;4.736;2022-08-01T05:14:31;18.50;99.90
8820;DHT22;4446;50.876;4.736;2022-08-01T05:16:59;18.50;99.90
8820;DHT22;4446;50.876;4.736;2022-08-01T05:19:30;18.50;99.90
8820;DHT22;4446;50.876;4.736;2022-08-01T05:21:58;18.50;99.90
8820;DHT22;4446;50.876;4.736;2022-08-01T05:24:26;18.60;99.90
8820;DHT22;4446;50.876;4.736;2022-08-01T05:26:54;18.60;99.90
8820;DHT22;4446;50.876;4.736;2022-08-01T05:29:21;18.60;99.90
8820;DHT22;4446;50.876;4.736;2022-08-01T05:31:49;18.60;99.90
8820;DHT22;4446;50.876;4.736;2022-08-01T05:34:16;18.70;99.90
8820;DHT22;4446;50.876;4.736;2022-08-01T05:36:45;18.80;99.90
8820;DHT22;4446;50.876;4.736;2022-08-01T05:39:13;18.80;99.90
8820;DHT22;4446;50.876;4.736;2022-08-01T05:41:40;18.80;99.90
8820;DHT22;4446;50.876;4.736;2022-08-01T05:44:08;18.80;99.90
8820;DHT22;4446;50.876;4.736;2022-08-01T05:46:35;18.80;99.90
8820;DHT22;4446;50.876;4.736;2022-08-01T05:49:03;18.80;99.90
8820;DHT22;4446;50.876;4.736;2022-08-01T05:51:31;18.90;99.90
8820;DHT22;4446;50.876;4.736;2022-08-01T05:53:59;18.90;99.90
8820;DHT22;4446;50.876;4.736;2022-08-01T05:56:26;19.00;99.90
8820;DHT22;4446;50.876;4.736;2022-08-01T05:58:54;19.10;99.90
8820;DHT22;4446;50.876;4.736;2022-08-01T06:01:21;19.20;99.90
8820;DHT22;4446;50.876;4.736;2022-08-01T06:03:48;19.20;99.90
8820;DHT22;4446;50.876;4.736;2022-08-01T06:06:15;19.30;99.90
8820;DHT22;4446;50.876;4.736;2022-08-01T06:08:42;19.40;99.90
8820;DHT22;4446;50.876;4.736;2022-08-01T06:11:11;19.40;99.90
8820;DHT22;4446;50.876;4.736;2022-08-01T06:13:38;19.50;99.90
8820;DHT22;4446;50.876;4.736;2022-08-01T06:16:05;19.60;99.90
8820;DHT22;4446;50.876;4.736;2022-08-01T06:18:32;19.70;99.90
8820;DHT22;4446;50.876;4.736;2022-08-01T06:20:59;19.70;99.90
8820;DHT22;4446;50.876;4.736;2022-08-01T06:23:26;19.80;99.90
8820;DHT22;4446;50.876;4.736;2022-08-01T06:25:53;19.80;99.90
8820;DHT22;4446;50.876;4.736;2022-08-01T06:28:22;19.90;99.90
8820;DHT22;4446;50.876;4.736;2022-08-01T06:30:49;20.10;99.90
8820;DHT22;4446;50.876;4.736;2022-08-01T06:33:16;20.30;99.90
8820;DHT22;4446;50.876;4.736;2022-08-01T06:35:44;20.40;99.90
8820;DHT22;4446;50.876;4.736;2022-08-01T06:38:11;20.50;99.90
8820;DHT22;4446;50.876;4.736;2022-08-01T06:40:38;20.60;99.90
8820;DHT22;4446;50.876;4.736;2022-08-01T06:43:05;20.80;99.90
8820;DHT22;4446;50.876;4.736;2022-08-01T06:45:33;21.00;99.90
8820;DHT22;4446;50.876;4.736;2022-08-01T06:48:02;21.20;99.90
8820;DHT22;4446;50.876;4.736;2022-08-01T06:50:29;21.40;99.90
8820;DHT22;4446;50.876;4.736;2022-08-01T06:52:57;21.60;99.90
8820;DHT22;4446;50.876;4.736;2022-08-01T06:55:24;21.90;99.90
8820;DHT22;4446;50.876;4.736;2022-08-01T06:57:52;22.10;99.90
8820;DHT22;4446;50.876;4.736;2022-08-01T07:00:21;22.30;99.90
8820;DHT22;4446;50.876;4.736;2022-08-01T07:02:50;22.40;99.90
8820;DHT22;4446;50.876;4.736;2022-08-01T07:05:17;22.30;99.90
8820;DHT22;4446;50.876;4.736;2022-08-01T07:07:44;22.40;99.90
8820;DHT22;4446;50.876;4.736;2022-08-01T07:10:11;22.20;99.90
8820;DHT22;4446;50.876;4.736;2022-08-01T07:12:39;22.20;99.90
8820;DHT22;4446;50.876;4.736;2022-08-01T07:15:10;22.00;99.90
8820;DHT22;4446;50.876;4.736;2022-08-01T07:17:38;21.90;99.90
8820;DHT22;4446;50.876;4.736;2022-08-01T07:20:08;21.70;99.90
8820;DHT22;4446;50.876;4.736;2022-08-01T07:22:38;21.70;99.90
8820;DHT22;4446;50.876;4.736;2022-08-01T07:25:06;21.80;99.90
8820;DHT22;4446;50.876;4.736;2022-08-01T07:27:34;21.80;99.90
8820;DHT22;4446;50.876;4.736;2022-08-01T07:30:01;21.90;99.90
8820;DHT22;4446;50.876;4.736;2022-08-01T07:32:28;21.80;99.90
8820;DHT22;4446;50.876;4.736;2022-08-01T07:34:56;21.80;99.90
8820;DHT22;4446;50.876;4.736;2022-08-01T07:37:25;21.70;99.90
8820;DHT22;4446;50.876;4.736;2022-08-01T07:39:52;21.70;99.90
8820;DHT22;4446;50.876;4.736;2022-08-01T07:42:19;21.80;99.90
8820;DHT22;4446;50.876;4.736;2022-08-01T07:44:48;21.90;99.90
8820;DHT22;4446;50.876;4.736;2022-08-01T07:47:15;22.10;99.90
8820;DHT22;4446;50.876;4.736;2022-08-01T07:49:42;22.10;99.90
8820;DHT22;4446;50.876;4.736;2022-08-01T07:52:09;22.00;99.90
8820;DHT22;4446;50.876;4.736;2022-08-01T07:54:38;22.10;99.90
8820;DHT22;4446;50.876;4.736;2022-08-01T07:57:05;22.20;99.90
8820;DHT22;4446;50.876;4.736;2022-08-01T07:59:32;22.20;99.90
8820;DHT22;4446;50.876;4.736;2022-08-01T08:01:59;22.10;99.90
8820;DHT22;4446;50.876;4.736;2022-08-01T08:04:27;22.20;99.90
8820;DHT22;4446;50.876;4.736;2022-08-01T08:06:54;22.10;99.90
8820;DHT22;4446;50.876;4.736;2022-08-01T08:09:21;22.20;99.90
8820;DHT22;4446;50.876;4.736;2022-08-01T08:11:50;22.30;99.90
8820;DHT22;4446;50.876;4.736;2022-08-01T08:14:18;22.40;99.90
8820;DHT22;4446;50.876;4.736;2022-08-01T08:16:48;22.40;99.90
8820;DHT22;4446;50.876;4.736;2022-08-01T08:19:15;22.60;99.90
8820;DHT22;4446;50.876;4.736;2022-08-01T08:21:43;22.90;99.90
8820;DHT22;4446;50.876;4.736;2022-08-01T08:24:10;23.10;99.90
8820;DHT22;4446;50.876;4.736;2022-08-01T08:26:47;23.40;99.90
8820;DHT22;4446;50.876;4.736;2022-08-01T08:29:17;23.50;99.90
8820;DHT22;4446;50.876;4.736;2022-08-01T08:31:44;23.50;99.90
8820;DHT22;4446;50.876;4.736;2022-08-01T08:34:12;23.60;99.90
8820;DHT22;4446;50.876;4.736;2022-08-01T08:36:39;23.50;99.90
8820;DHT22;4446;50.876;4.736;2022-08-01T08:39:06;23.60;99.90
8820;DHT22;4446;50.876;4.736;2022-08-01T08:41:34;23.70;99.90
8820;DHT22;4446;50.876;4.736;2022-08-01T08:44:01;23.90;99.90
8820;DHT22;4446;50.876;4.736;2022-08-01T08:46:31;24.00;99.90
8820;DHT22;4446;50.876;4.736;2022-08-01T08:49:00;24.00;99.90
8820;DHT22;4446;50.876;4.736;2022-08-01T08:51:30;24.30;99.90
8820;DHT22;4446;50.876;4.736;2022-08-01T08:54:00;24.50;99.90
8820;DHT22;4446;50.876;4.736;2022-08-01T08:56:30;24.60;99.90
8820;DHT22;4446;50.876;4.736;2022-08-01T08:59:00;24.60;99.90
8820;DHT22;4446;50.876;4.736;2022-08-01T09:01:27;24.30;99.90
8820;DHT22;4446;50.876;4.736;2022-08-01T09:03:56;24.30;99.90
8820;DHT22;4446;50.876;4.736;2022-08-01T09:06:23;24.50;99.90
8820;DHT22;4446;50.876;4.736;2022-08-01T09:08:50;24.40;99.90
8820;DHT22;4446;50.876;4.736;2022-08-01T09:11:17;24.20;99.90
8820;DHT22;4446;50.876;4.736;2022-08-01T09:14:01;24.30;99.90
8820;DHT22;4446;50.876;4.736;2022-08-01T09:16:29;24.10;99.90
8820;DHT22;4446;50.876;4.736;2022-08-01T09:19:08;24.30;99.90
8820;DHT22;4446;50.876;4.736;2022-08-01T09:21:35;24.70;99.90
8820;DHT22;4446;50.876;4.736;2022-08-01T09:24:03;24.90;99.90
8820;DHT22;4446;50.876;4.736;2022-08-01T09:26:33;25.20;99.90
8820;DHT22;4446;50.876;4.736;2022-08-01T09:29:03;25.50;99.90
8820;DHT22;4446;50.876;4.736;2022-08-01T09:31:39;25.70;99.90
8820;DHT22;4446;50.876;4.736;2022-08-01T09:34:08;25.60;99.90
8820;DHT22;4446;50.876;4.736;2022-08-01T09:36:49;25.60;99.90
8820;DHT22;4446;50.876;4.736;2022-08-01T09:39:22;25.50;99.90
8820;DHT22;4446;50.876;4.736;2022-08-01T09:41:49;25.30;99.90
8820;DHT22;4446;50.876;4.736;2022-08-01T09:44:17;25.30;99.90
8820;DHT22;4446;50.876;4.736;2022-08-01T09:46:51;25.20;99.90
8820;DHT22;4446;50.876;4.736;2022-08-01T09:49:29;25.30;99.90
8820;DHT22;4446;50.876;4.736;2022-08-01T09:51:58;25.40;99.90
8820;DHT22;4446;50.876;4.736;2022-08-01T09:54:30;25.40;99.90
8820;DHT22;4446;50.876;4.736;2022-08-01T09:57:09;25.70;99.90
8820;DHT22;4446;50.876;4.736;2022-08-01T09:59:37;25.80;99.90
8820;DHT22;4446;50.876;4.736;2022-08-01T10:02:08;25.70;99.90
8820;DHT22;4446;50.876;4.736;2022-08-01T10:04:37;25.70;99.90
8820;DHT22;4446;50.876;4.736;2022-08-01T10:07:06;25.70;99.90
8820;DHT22;4446;50.876;4.736;2022-08-01T10:09:35;25.50;99.90
8820;DHT22;4446;50.876;4.736;2022-08-01T10:12:04;25.60;99.90
8820;DHT22;4446;50.876;4.736;2022-08-01T10:14:31;25.60;99.90
8820;DHT22;4446;50.876;4.736;2022-08-01T10:16:59;25.80;99.90
8820;DHT22;4446;50.876;4.736;2022-08-01T10:19:29;25.60;99.90
8820;DHT22;4446;50.876;4.736;2022-08-01T10:22:00;25.40;99.90
8820;DHT22;4446;50.876;4.736;2022-08-01T10:24:29;25.30;99.90
8820;DHT22;4446;50.876;4.736;2022-08-01T10:26:58;25.40;99.90
8820;DHT22;4446;50.876;4.736;2022-08-01T10:29:34;25.50;99.90
8820;DHT22;4446;50.876;4.736;2022-08-01T10:32:04;25.40;99.90
8820;DHT22;4446;50.876;4.736;2022-08-01T10:34:31;25.70;99.90
8820;DHT22;4446;50.876;4.736;2022-08-01T10:37:01;25.80;99.90
8820;DHT22;4446;50.876;4.736;2022-08-01T10:39:30;26.00;99.90
8820;DHT22;4446;50.876;4.736;2022-08-01T10:41:57;26.20;99.90
8820;DHT22;4446;50.876;4.736;2022-08-01T10:44:26;26.30;99.90
8820;DHT22;4446;50.876;4.736;2022-08-01T10:46:59;26.40;99.90
8820;DHT22;4446;50.876;4.736;2022-08-01T10:49:30;26.60;99.90
8820;DHT22;4446;50.876;4.736;2022-08-01T10:51:59;26.60;99.90
8820;DHT22;4446;50.876;4.736;2022-08-01T10:54:27;26.70;99.90
8820;DHT22;4446;50.876;4.736;2022-08-01T10:56:54;26.70;99.90
8820;DHT22;4446;50.876;4.736;2022-08-01T10:59:28;26.60;99.90
8820;DHT22;4446;50.876;4.736;2022-08-01T11:01:57;26.40;99.90
8820;DHT22;4446;50.876;4.736;2022-08-01T11:04:34;26.60;99.90
8820;DHT22;4446;50.876;4.736;2022-08-01T11:07:08;26.80;99.90
8820;DHT22;4446;50.876;4.736;2022-08-01T11:09:41;26.70;99.90
8820;DHT22;4446;50.876;4.736;2022-08-01T11:12:11;26.90;99.90
8820;DHT22;4446;50.876;4.736;2022-08-01T11:17:50;27.00;99.90
8820;DHT22;4446;50.876;4.736;2022-08-01T11:20:18;27.10;99.90
8820;DHT22;4446;50.876;4.736;2022-08-01T11:26:15;27.20;99.90
8820;DHT22;4446;50.876;4.736;2022-08-01T11:28:44;26.60;99.90
8820;DHT22;4446;50.876;4.736;2022-08-01T11:31:39;26.70;99.90
8820;DHT22;4446;50.876;4.736;2022-08-01T11:34:06;26.80;99.90
8820;DHT22;4446;50.876;4.736;2022-08-01T11:36:33;26.60;99.90
8820;DHT22;4446;50.876;4.736;2022-08-01T11:39:17;26.90;99.90
8820;DHT22;4446;50.876;4.736;2022-08-01T11:41:47;27.10;99.90
8820;DHT22;4446;50.876;4.736;2022-08-01T11:44:17;27.50;99.90
8820;DHT22;4446;50.876;4.736;2022-08-01T11:46:53;27.80;99.90
8820;DHT22;4446;50.876;4.736;2022-08-01T11:49:32;27.90;99.90
8820;DHT22;4446;50.876;4.736;2022-08-01T11:52:01;27.90;99.90
8820;DHT22;4446;50.876;4.736;2022-08-01T11:54:30;28.00;99.90
8820;DHT22;4446;50.876;4.736;2022-08-01T11:57:01;28.30;99.90
8820;DHT22;4446;50.876;4.736;2022-08-01T11:59:36;28.50;99.90
8820;DHT22;4446;50.876;4.736;2022-08-01T12:02:04;28.40;99.90
8820;DHT22;4446;50.876;4.736;2022-08-01T12:04:48;28.40;99.90
8820;DHT22;4446;50.876;4.736;2022-08-01T12:07:16;28.50;99.90
8820;DHT22;4446;50.876;4.736;2022-08-01T12:09:43;28.40;99.90
8820;DHT22;4446;50.876;4.736;2022-08-01T12:12:15;28.20;99.90
8820;DHT22;4446;50.876;4.736;2022-08-01T12:14:45;28.00;99.90
8820;DHT22;4446;50.876;4.736;2022-08-01T12:17:12;27.90;99.90
8820;DHT22;4446;50.876;4.736;2022-08-01T12:19:40;28.00;99.90
8820;DHT22;4446;50.876;4.736;2022-08-01T12:22:25;28.20;99.90
8820;DHT22;4446;50.876;4.736;2022-08-01T12:24:53;28.60;99.90
8820;DHT22;4446;50.876;4.736;2022-08-01T12:27:29;28.60;99.90
8820;DHT22;4446;50.876;4.736;2022-08-01T12:29:58;28.60;99.90
8820;DHT22;4446;50.876;4.736;2022-08-01T12:32:27;28.70;99.90
8820;DHT22;4446;50.876;4.736;2022-08-01T12:34:57;28.60;99.90
8820;DHT22;4446;50.876;4.736;2022-08-01T12:37:27;28.50;99.90
8820;DHT22;4446;50.876;4.736;2022-08-01T12:39:56;28.50;99.90
8820;DHT22;4446;50.876;4.736;2022-08-01T12:42:24;28.50;99.90
8820;DHT22;4446;50.876;4.736;2022-08-01T12:44:54;28.50;99.90
8820;DHT22;4446;50.876;4.736;2022-08-01T12:47:23;28.60;99.90
8820;DHT22;4446;50.876;4.736;2022-08-01T12:49:50;28.60;99.90
8820;DHT22;4446;50.876;4.736;2022-08-01T12:52:18;28.80;99.90
8820;DHT22;4446;50.876;4.736;2022-08-01T12:55:07;28.70;99.90
8820;DHT22;4446;50.876;4.736;2022-08-01T12:57:36;28.20;99.90
8820;DHT22;4446;50.876;4.736;2022-08-01T13:00:19;28.10;99.90
8820;DHT22;4446;50.876;4.736;2022-08-01T13:02:49;27.90;99.90
8820;DHT22;4446;50.876;4.736;2022-08-01T13:05:16;27.90;99.90
8820;DHT22;4446;50.876;4.736;2022-08-01T13:07:47;27.90;99.90
8820;DHT22;4446;50.876;4.736;2022-08-01T13:10:23;28.10;99.90
8820;DHT22;4446;50.876;4.736;2022-08-01T13:12:57;28.20;99.90
8820;DHT22;4446;50.876;4.736;2022-08-01T13:15:30;28.50;99.90
8820;DHT22;4446;50.876;4.736;2022-08-01T13:17:59;28.60;99.90
8820;DHT22;4446;50.876;4.736;2022-08-01T13:20:30;28.40;99.90
8820;DHT22;4446;50.876;4.736;2022-08-01T13:23:16;28.40;99.90
8820;DHT22;4446;50.876;4.736;2022-08-01T13:25:52;28.60;99.90
8820;DHT22;4446;50.876;4.736;2022-08-01T13:28:22;28.70;99.90
8820;DHT22;4446;50.876;4.736;2022-08-01T13:30:56;28.80;99.90
8820;DHT22;4446;50.876;4.736;2022-08-01T13:33:27;28.90;99.90
8820;DHT22;4446;50.876;4.736;2022-08-01T13:35:56;29.10;99.50
8820;DHT22;4446;50.876;4.736;2022-08-01T13:38:23;29.40;99.30
8820;DHT22;4446;50.876;4.736;2022-08-01T13:41:05;30.00;98.90
8820;DHT22;4446;50.876;4.736;2022-08-01T13:43:32;30.20;97.60
8820;DHT22;4446;50.876;4.736;2022-08-01T13:46:01;30.20;97.00
8820;DHT22;4446;50.876;4.736;2022-08-01T13:48:30;30.30;96.70
8820;DHT22;4446;50.876;4.736;2022-08-01T13:51:00;30.50;96.90
8820;DHT22;4446;50.876;4.736;2022-08-01T13:53:27;31.20;95.40
8820;DHT22;4446;50.876;4.736;2022-08-01T13:55:55;31.80;95.20
8820;DHT22;4446;50.876;4.736;2022-08-01T13:58:22;32.20;94.50
8820;DHT22;4446;50.876;4.736;2022-08-01T14:00:49;32.70;93.30
8820;DHT22;4446;50.876;4.736;2022-08-01T14:03:18;33.10;92.70
8820;DHT22;4446;50.876;4.736;2022-08-01T14:05:45;33.20;93.30
8820;DHT22;4446;50.876;4.736;2022-08-01T14:08:14;33.40;92.50
8820;DHT22;4446;50.876;4.736;2022-08-01T14:10:42;32.80;92.30
8820;DHT22;4446;50.876;4.736;2022-08-01T14:13:09;32.10;92.10
8820;DHT22;4446;50.876;4.736;2022-08-01T14:15:36;32.10;92.50
8820;DHT22;4446;50.876;4.736;2022-08-01T14:18:03;32.90;91.80
8820;DHT22;4446;50.876;4.736;2022-08-01T14:20:32;32.60;90.50
8820;DHT22;4446;50.876;4.736;2022-08-01T14:22:59;32.20;90.80
8820;DHT22;4446;50.876;4.736;2022-08-01T14:25:26;31.40;91.00
8820;DHT22;4446;50.876;4.736;2022-08-01T14:27:53;31.10;91.70
8820;DHT22;4446;50.876;4.736;2022-08-01T14:30:20;31.10;91.90
8820;DHT22;4446;50.876;4.736;2022-08-01T14:32:48;31.30;91.40
8820;DHT22;4446;50.876;4.736;2022-08-01T14:35:15;30.90;91.70
8820;DHT22;4446;50.876;4.736;2022-08-01T14:37:43;31.10;91.30
8820;DHT22;4446;50.876;4.736;2022-08-01T14:40:10;31.60;91.40
8820;DHT22;4446;50.876;4.736;2022-08-01T14:42:38;32.00;90.60
8820;DHT22;4446;50.876;4.736;2022-08-01T14:45:07;32.00;90.60
8820;DHT22;4446;50.876;4.736;2022-08-01T14:47:36;32.30;90.10
8820;DHT22;4446;50.876;4.736;2022-08-01T14:50:04;32.40;89.40
8820;DHT22;4446;50.876;4.736;2022-08-01T14:52:32;32.40;87.90
8820;DHT22;4446;50.876;4.736;2022-08-01T14:55:01;32.50;87.40
8820;DHT22;4446;50.876;4.736;2022-08-01T14:57:29;32.90;87.20
8820;DHT22;4446;50.876;4.736;2022-08-01T14:59:56;32.90;86.20
8820;DHT22;4446;50.876;4.736;2022-08-01T15:02:23;33.10;86.30
8820;DHT22;4446;50.876;4.736;2022-08-01T15:04:50;33.20;84.80
8820;DHT22;4446;50.876;4.736;2022-08-01T15:07:19;33.50;85.60
8820;DHT22;4446;50.876;4.736;2022-08-01T15:09:46;33.80;85.00
8820;DHT22;4446;50.876;4.736;2022-08-01T15:12:14;34.10;84.50
8820;DHT22;4446;50.876;4.736;2022-08-01T15:14:41;34.00;84.30
8820;DHT22;4446;50.876;4.736;2022-08-01T15:17:18;34.30;84.10
8820;DHT22;4446;50.876;4.736;2022-08-01T15:19:46;34.40;82.80
8820;DHT22;4446;50.876;4.736;2022-08-01T15:22:13;34.10;82.10
8820;DHT22;4446;50.876;4.736;2022-08-01T15:24:41;34.00;82.00
8820;DHT22;4446;50.876;4.736;2022-08-01T15:27:09;33.80;82.10
8820;DHT22;4446;50.876;4.736;2022-08-01T15:29:37;33.30;82.80
8820;DHT22;4446;50.876;4.736;2022-08-01T15:32:06;33.10;82.40
8820;DHT22;4446;50.876;4.736;2022-08-01T15:34:33;33.40;81.60
8820;DHT22;4446;50.876;4.736;2022-08-01T15:37:00;33.80;81.50
8820;DHT22;4446;50.876;4.736;2022-08-01T15:39:27;33.70;80.60
8820;DHT22;4446;50.876;4.736;2022-08-01T15:41:54;33.50;80.60
8820;DHT22;4446;50.876;4.736;2022-08-01T15:44:24;33.80;80.80
8820;DHT22;4446;50.876;4.736;2022-08-01T15:46:53;34.10;80.10
8820;DHT22;4446;50.876;4.736;2022-08-01T15:49:20;34.00;78.80
8820;DHT22;4446;50.876;4.736;2022-08-01T15:51:48;33.40;79.10
8820;DHT22;4446;50.876;4.736;2022-08-01T15:54:15;33.10;79.70
8820;DHT22;4446;50.876;4.736;2022-08-01T15:56:42;33.20;81.80
8820;DHT22;4446;50.876;4.736;2022-08-01T15:59:09;33.50;80.50
8820;DHT22;4446;50.876;4.736;2022-08-01T16:01:37;33.90;78.80
8820;DHT22;4446;50.876;4.736;2022-08-01T16:04:05;33.30;78.60
8820;DHT22;4446;50.876;4.736;2022-08-01T16:06:33;33.30;79.90
8820;DHT22;4446;50.876;4.736;2022-08-01T16:09:02;33.60;79.80
8820;DHT22;4446;50.876;4.736;2022-08-01T16:11:29;34.10;79.50
8820;DHT22;4446;50.876;4.736;2022-08-01T16:13:57;34.40;78.10
8820;DHT22;4446;50.876;4.736;2022-08-01T16:16:24;34.50;77.00
8820;DHT22;4446;50.876;4.736;2022-08-01T16:18:52;34.20;76.80
8820;DHT22;4446;50.876;4.736;2022-08-01T16:21:21;34.60;77.10
8820;DHT22;4446;50.876;4.736;2022-08-01T16:23:48;35.20;76.70